Time;durP1;ratioP1;P1;durP2;ratioP2;P2;SDS_P1;SDS_P2;PMS_P1;PMS_P2;Temp;Humidity;BMP_temperature;BMP_pressure;BME280_temperature;BME280_humidity;BME280_pressure;Samples;Min_cycle;Max_cycle;Signal;HPM_P1;HPM_P2
2020/12/12 00:01:22;;;;;;;4.00;1.15;;;23.70;51.10;;;;;;5112808;28;20486;-60
2020/12/12 00:03:49;;;;;;;2.08;0.80;;;23.70;50.00;;;;;;5112705;28;20077;-57
2020/12/12 00:06:21;;;;;;;1.60;0.80;;;23.70;50.10;;;;;;5109511;27;20019;-59
2020/12/12 00:08:48;;;;;;;;;;;23.70;49.60;;;;;;5111729;28;20039;-58
2020/12/12 00:11:16;;;;;;;1.77;0.85;;;23.80;50.70;;;;;;5112068;28;20456;-54
2020/12/12 00:13:43;;;;;;;2.00;0.70;;;23.70;51.00;;;;;;5112458;28;20118;-60
2020/12/12 00:16:11;;;;;;;1.38;0.68;;;23.70;51.00;;;;;;5112183;28;20055;-59
2020/12/12 00:18:38;;;;;;;2.17;0.75;;;23.70;51.00;;;;;;5112210;28;20166;-57
2020/12/12 00:21:06;;;;;;;1.90;0.88;;;23.70;50.10;;;;;;5112436;28;20039;-62
2020/12/12 00:23:34;;;;;;;1.30;0.70;;;23.80;51.00;;;;;;5112468;28;20062;-59
2020/12/12 00:26:01;;;;;;;3.90;1.80;;;23.70;51.10;;;;;;5112118;28;20027;-60
2020/12/12 00:28:31;;;;;;;1.20;0.77;;;23.70;49.90;;;;;;5112432;28;20035;-61
2020/12/12 00:30:59;;;;;;;1.27;0.70;;;23.80;50.20;;;;;;5111701;28;20239;-60
2020/12/12 00:33:27;;;;;;;1.92;1.02;;;23.80;49.50;;;;;;5112509;28;20023;-59
2020/12/12 00:35:54;;;;;;;2.35;1.02;;;23.90;49.90;;;;;;5112213;28;20430;-55
2020/12/12 00:38:21;;;;;;;2.45;0.93;;;23.90;50.50;;;;;;5112614;28;20023;-61
2020/12/12 00:40:58;;;;;;;3.58;1.10;;;23.90;50.60;;;;;;5112382;28;20434;-61
2020/12/12 00:43:26;;;;;;;1.23;0.65;;;24.00;48.70;;;;;;5112372;28;20032;-59
2020/12/12 00:45:53;;;;;;;1.10;0.60;;;24.00;50.30;;;;;;5112306;28;20098;-55
2020/12/12 00:48:21;;;;;;;4.53;0.80;;;24.00;50.60;;;;;;5112363;28;20038;-62
2020/12/12 00:50:49;;;;;;;6.25;0.82;;;23.90;50.80;;;;;;5112242;28;20080;-62
2020/12/12 00:53:17;;;;;;;1.67;1.00;;;24.00;50.70;;;;;;5112004;28;20032;-57
2020/12/12 00:55:44;;;;;;;1.40;0.70;;;24.10;50.60;;;;;;5111916;28;20103;-57
2020/12/12 00:58:11;;;;;;;2.65;0.80;;;24.10;49.20;;;;;;5112130;28;20034;-57
2020/12/12 01:00:39;;;;;;;3.05;1.25;;;24.10;50.60;;;;;;5112051;28;20099;-58
2020/12/12 01:03:06;;;;;;;1.67;0.77;;;24.10;50.30;;;;;;5111929;28;20384;-55
2020/12/12 01:05:33;;;;;;;0.80;0.50;;;24.20;50.30;;;;;;5112288;28;20373;-60
2020/12/12 01:08:01;;;;;;;1.98;0.75;;;24.10;50.20;;;;;;5111421;28;20096;-55
2020/12/12 01:10:29;;;;;;;2.20;0.73;;;24.20;50.30;;;;;;5111489;28;20492;-60
2020/12/12 01:12:57;;;;;;;2.17;0.90;;;24.20;50.10;;;;;;5111792;28;20028;-58
2020/12/12 01:15:24;;;;;;;1.23;0.60;;;24.20;50.30;;;;;;5111376;28;20054;-57
2020/12/12 01:17:52;;;;;;;2.63;0.98;;;24.20;50.40;;;;;;5089384;28;20141;-54
2020/12/12 01:20:19;;;;;;;1.15;0.80;;;24.20;50.50;;;;;;5091946;28;20028;-56
2020/12/12 01:22:48;;;;;;;2.58;0.75;;;24.30;50.60;;;;;;5091821;28;20028;-59
2020/12/12 01:25:15;;;;;;;1.23;0.55;;;24.30;49.90;;;;;;5091273;28;20031;-58
2020/12/12 01:27:43;;;;;;;2.28;0.70;;;24.40;49.90;;;;;;5091895;28;20032;-58
2020/12/12 01:30:10;;;;;;;3.78;0.85;;;24.40;50.00;;;;;;5091538;28;20134;-60
2020/12/12 01:32:37;;;;;;;1.50;0.80;;;24.50;49.20;;;;;;5091949;28;20024;-61
2020/12/12 01:35:05;;;;;;;1.80;0.77;;;24.60;49.50;;;;;;5091417;28;20378;-60
2020/12/12 01:37:33;;;;;;;2.47;0.80;;;24.60;49.40;;;;;;5091418;28;20032;-62
2020/12/12 01:40:00;;;;;;;2.05;0.80;;;24.70;49.10;;;;;;5091389;28;20020;-59
2020/12/12 01:42:27;;;;;;;2.28;0.80;;;24.70;47.20;;;;;;5094943;28;20051;-59
2020/12/12 01:44:59;;;;;;;1.25;0.93;;;24.80;47.00;;;;;;5095174;28;20031;-59
2020/12/12 01:47:29;;;;;;;3.20;0.90;;;24.90;48.00;;;;;;5095147;28;20568;-54
2020/12/12 01:49:56;;;;;;;2.58;1.02;;;24.90;48.30;;;;;;5095158;28;20039;-58
2020/12/12 01:52:24;;;;;;;1.95;1.13;;;25.00;47.90;;;;;;5082206;28;20092;-58
2020/12/12 01:54:52;;;;;;;5.10;0.88;;;25.10;48.50;;;;;;5092719;28;20463;-57
2020/12/12 01:57:22;;;;;;;3.58;0.85;;;25.10;48.70;;;;;;5090962;28;20423;-60
2020/12/12 01:59:50;;;;;;;7.13;1.00;;;25.10;47.30;;;;;;5091555;28;20050;-67
2020/12/12 02:02:27;;;;;;;4.15;1.02;;;25.20;48.20;;;;;;5092618;28;20125;-55
2020/12/12 02:05:09;;;;;;;3.33;0.82;;;25.20;47.30;;;;;;5091967;28;20052;-50
2020/12/12 02:07:38;;;;;;;2.90;1.00;;;25.20;48.20;;;;;;5088425;28;20047;-51
2020/12/12 02:10:06;;;;;;;1.40;0.70;;;25.20;48.70;;;;;;5092561;28;20024;-48
2020/12/12 02:12:34;;;;;;;3.63;0.90;;;25.20;48.90;;;;;;5092330;28;20026;-53
2020/12/12 02:15:01;;;;;;;8.55;1.38;;;25.30;48.50;;;;;;5091656;28;20055;-50
2020/12/12 02:17:29;;;;;;;3.95;0.70;;;25.30;48.60;;;;;;5088681;28;20498;-53
2020/12/12 02:19:56;;;;;;;2.22;0.90;;;25.40;48.50;;;;;;5091695;28;20035;-51
2020/12/12 02:22:24;;;;;;;5.18;1.23;;;25.40;48.60;;;;;;5090425;28;20428;-64
2020/12/12 02:24:52;;;;;;;2.95;1.00;;;25.40;48.40;;;;;;5092436;28;20020;-57
2020/12/12 02:27:21;;;;;;;2.60;0.88;;;25.50;48.50;;;;;;5087077;28;20020;-50
2020/12/12 02:29:50;;;;;;;4.88;0.88;;;25.40;48.80;;;;;;5089791;28;20032;-57
2020/12/12 02:32:18;;;;;;;4.05;1.40;;;25.50;48.50;;;;;;5089888;28;20039;-58
2020/12/12 02:34:45;;;;;;;6.35;0.98;;;25.50;48.60;;;;;;5091150;28;20152;-52
2020/12/12 02:37:13;;;;;;;2.50;0.95;;;25.50;48.50;;;;;;5087808;28;20335;-58
2020/12/12 02:39:40;;;;;;;3.90;1.05;;;25.50;48.50;;;;;;5090197;28;20026;-54
2020/12/12 02:42:08;;;;;;;4.43;1.52;;;25.50;48.40;;;;;;5089161;28;20430;-52
2020/12/12 02:44:35;;;;;;;2.72;0.90;;;25.40;48.40;;;;;;5089848;28;20031;-52
2020/12/12 02:47:02;;;;;;;1.65;0.77;;;25.50;48.60;;;;;;5087220;28;20111;-52
2020/12/12 02:49:30;;;;;;;2.03;0.93;;;25.40;48.90;;;;;;5091089;28;20040;-55
2020/12/12 02:51:57;;;;;;;2.28;0.90;;;25.40;49.10;;;;;;5089975;28;20016;-54
2020/12/12 02:54:25;;;;;;;3.03;0.98;;;25.40;49.10;;;;;;5090184;28;20032;-54
2020/12/12 02:56:52;;;;;;;1.70;0.82;;;25.40;49.10;;;;;;5086635;28;20142;-55
2020/12/12 02:59:19;;;;;;;3.97;0.80;;;25.40;49.10;;;;;;5088949;28;20024;-53
2020/12/12 03:01:46;;;;;;;2.97;1.15;;;25.40;49.20;;;;;;5090147;28;20430;-51
2020/12/12 03:04:14;;;;;;;3.22;0.85;;;25.50;49.10;;;;;;5089479;28;20438;-50
2020/12/12 03:06:44;;;;;;;1.70;0.80;;;25.50;49.10;;;;;;5089138;28;20039;-54
2020/12/12 03:09:11;;;;;;;2.47;0.65;;;25.50;49.10;;;;;;5088883;28;20585;-52
2020/12/12 03:11:39;;;;;;;2.20;0.85;;;25.60;49.10;;;;;;5090201;28;20062;-52
2020/12/12 03:14:06;;;;;;;4.85;1.15;;;25.60;49.20;;;;;;5089851;28;20042;-52
2020/12/12 03:16:34;;;;;;;5.20;1.65;;;25.70;49.40;;;;;;5089429;28;20185;-56
2020/12/12 03:19:01;;;;;;;6.18;1.13;;;25.70;49.50;;;;;;5106678;28;20052;-57
2020/12/12 03:21:28;;;;;;;2.60;1.00;;;25.70;49.60;;;;;;5109624;28;20046;-60
2020/12/12 03:23:56;;;;;;;6.05;1.02;;;25.60;50.00;;;;;;5110473;28;20024;-49
2020/12/12 03:26:23;;;;;;;3.65;1.15;;;25.70;50.10;;;;;;5110497;28;20057;-58
2020/12/12 03:28:50;;;;;;;7.95;2.08;;;25.60;50.10;;;;;;5106940;28;20506;-50
2020/12/12 03:31:18;;;;;;;9.55;1.42;;;25.60;50.40;;;;;;5109623;28;20027;-51
2020/12/12 03:33:45;;;;;;;3.67;1.50;;;25.60;50.10;;;;;;5107492;28;20031;-62
2020/12/12 03:36:13;;;;;;;5.13;1.17;;;25.60;50.30;;;;;;5110354;28;20058;-56
2020/12/12 03:38:40;;;;;;;2.17;0.95;;;25.70;51.10;;;;;;5106524;28;20035;-55
2020/12/12 03:41:07;;;;;;;6.50;1.20;;;25.60;50.70;;;;;;5109685;28;20392;-56
2020/12/12 03:43:35;;;;;;;3.95;1.25;;;25.60;50.60;;;;;;5092595;28;20031;-54
2020/12/12 03:46:02;;;;;;;5.03;1.23;;;25.60;50.70;;;;;;5110278;28;20023;-59
2020/12/12 03:48:30;;;;;;;7.93;1.10;;;25.60;50.60;;;;;;5106025;28;20020;-61
2020/12/12 03:50:57;;;;;;;5.28;1.05;;;25.60;51.30;;;;;;5108733;28;20027;-48
2020/12/12 03:53:24;;;;;;;3.88;1.20;;;25.60;51.40;;;;;;5110101;28;20467;-52
2020/12/12 03:55:52;;;;;;;6.93;1.40;;;25.60;52.00;;;;;;5109079;28;20391;-52
2020/12/12 03:58:19;;;;;;;5.60;1.40;;;25.60;51.20;;;;;;5106822;28;20471;-58
2020/12/12 04:00:46;;;;;;;11.02;1.42;;;25.60;51.70;;;;;;5110199;28;20053;-59
2020/12/12 04:03:14;;;;;;;8.82;1.55;;;25.60;52.30;;;;;;5109930;28;20043;-54
2020/12/12 04:05:44;;;;;;;3.70;1.20;;;25.60;52.30;;;;;;5108504;28;20024;-54
2020/12/12 04:08:15;;;;;;;4.82;1.40;;;25.60;52.50;;;;;;5106514;28;20044;-61
2020/12/12 04:10:43;;;;;;;8.00;1.13;;;25.60;52.80;;;;;;5107020;28;20485;-56
2020/12/12 04:13:10;;;;;;;5.32;1.45;;;25.50;52.80;;;;;;5109030;28;20023;-53
2020/12/12 04:15:37;;;;;;;7.97;1.13;;;25.50;53.30;;;;;;5109450;28;20032;-64
2020/12/12 04:18:05;;;;;;;9.13;1.40;;;25.50;53.90;;;;;;5106141;28;20070;-62
2020/12/12 04:20:32;;;;;;;6.07;1.27;;;25.50;54.20;;;;;;5108140;28;20128;-60
2020/12/12 04:22:59;;;;;;;6.68;1.50;;;25.50;54.60;;;;;;5090008;28;20055;-60
2020/12/12 04:25:30;;;;;;;9.18;1.58;;;25.50;54.90;;;;;;5112059;28;20030;-50
2020/12/12 04:27:57;;;;;;;6.85;1.50;;;25.40;55.20;;;;;;5109403;28;20055;-54
2020/12/12 04:30:24;;;;;;;6.18;1.40;;;25.40;55.60;;;;;;5111456;28;20047;-52
2020/12/12 04:32:52;;;;;;;3.22;1.08;;;25.40;55.90;;;;;;5111239;28;20296;-58
2020/12/12 04:35:19;;;;;;;7.18;1.50;;;25.40;56.10;;;;;;5111187;28;20023;-59
2020/12/12 04:37:46;;;;;;;4.90;1.15;;;25.40;55.10;;;;;;5091427;28;20366;-51
2020/12/12 04:40:15;;;;;;;6.43;1.42;;;25.40;56.30;;;;;;5111574;28;20466;-57
2020/12/12 04:42:45;;;;;;;8.63;1.27;;;25.50;56.50;;;;;;5108063;28;20047;-52
2020/12/12 04:45:13;;;;;;;8.68;1.92;;;25.50;56.20;;;;;;5112472;27;20096;-58
2020/12/12 04:47:44;;;;;;;3.85;1.00;;;25.40;56.20;;;;;;5109669;28;20032;-60
2020/12/12 04:50:12;;;;;;;7.97;3.22;;;25.40;55.20;;;;;;5112098;28;20454;-60
2020/12/12 04:52:43;;;;;;;6.65;3.30;;;25.50;55.90;;;;;;5111176;28;20407;-59
2020/12/12 04:55:11;;;;;;;10.70;5.33;;;25.40;54.50;;;;;;5112032;28;20135;-61
2020/12/12 04:57:39;;;;;;;14.73;11.90;;;25.30;55.50;;;;;;5112211;28;20023;-57
2020/12/12 05:00:12;;;;;;;14.68;5.20;;;25.30;55.20;;;;;;5108046;28;20107;-57
2020/12/12 05:02:40;;;;;;;17.33;5.47;;;25.40;55.60;;;;;;5111529;28;20039;-61
2020/12/12 05:05:08;;;;;;;12.70;6.15;;;25.30;55.90;;;;;;5112315;28;20023;-62
2020/12/12 05:07:36;;;;;;;12.65;4.40;;;25.30;55.20;;;;;;5111318;28;20050;-61
2020/12/12 05:10:05;;;;;;;12.70;5.57;;;25.30;54.80;;;;;;5111644;28;20023;-59
2020/12/12 05:12:34;;;;;;;12.45;5.13;;;25.40;55.50;;;;;;5112215;28;20035;-61
2020/12/12 05:15:02;;;;;;;9.50;3.95;;;25.40;55.10;;;;;;5112197;28;20062;-60
2020/12/12 05:17:30;;;;;;;7.82;5.60;;;25.50;54.00;;;;;;5111768;28;20066;-62
2020/12/12 05:19:59;;;;;;;15.07;11.75;;;25.50;54.60;;;;;;5112040;28;20031;-57
2020/12/12 05:22:26;;;;;;;8.77;4.88;;;25.60;54.60;;;;;;5111638;28;20381;-61
2020/12/12 05:24:54;;;;;;;9.68;2.65;;;25.50;54.10;;;;;;5111980;28;20027;-61
2020/12/12 05:27:23;;;;;;;11.70;5.93;;;25.60;53.20;;;;;;5111713;28;20035;-64
2020/12/12 05:29:51;;;;;;;9.90;3.03;;;25.60;54.00;;;;;;5111156;28;20067;-61
2020/12/12 05:32:18;;;;;;;8.63;5.28;;;25.60;53.40;;;;;;5112016;28;20020;-58
2020/12/12 05:34:45;;;;;;;5.88;3.55;;;25.50;53.80;;;;;;5093575;28;20028;-61
2020/12/12 05:37:13;;;;;;;5.30;2.20;;;25.50;53.60;;;;;;5111780;28;20032;-56
2020/12/12 05:39:40;;;;;;;8.98;1.52;;;25.50;54.20;;;;;;5111296;28;20020;-54
2020/12/12 05:42:08;;;;;;;2.60;1.15;;;25.50;54.00;;;;;;5111614;28;20055;-58
2020/12/12 05:44:35;;;;;;;3.90;1.30;;;25.50;54.30;;;;;;5111609;28;20099;-59
2020/12/12 05:47:03;;;;;;;3.38;0.88;;;25.40;54.30;;;;;;5111668;28;20474;-57
2020/12/12 05:49:35;;;;;;;12.68;1.52;;;25.40;53.90;;;;;;5111487;28;20126;-61
2020/12/12 05:52:03;;;;;;;6.20;1.27;;;25.30;54.20;;;;;;5110727;28;20374;-59
2020/12/12 05:54:31;;;;;;;14.90;1.90;;;25.40;55.10;;;;;;5107806;28;20024;-61
2020/12/12 05:57:00;;;;;;;6.75;0.90;;;25.40;54.20;;;;;;5091118;28;20110;-62
2020/12/12 05:59:28;;;;;;;5.90;1.40;;;25.30;53.00;;;;;;5091244;28;20017;-59
2020/12/12 06:02:03;;;;;;;12.25;1.50;;;25.30;54.50;;;;;;5091077;28;20097;-59
2020/12/12 06:04:35;;;;;;;7.15;1.55;;;25.30;54.10;;;;;;5091010;28;20079;-54
2020/12/12 06:07:06;;;;;;;10.57;1.67;;;25.40;54.60;;;;;;5091039;28;20032;-57
2020/12/12 06:09:38;;;;;;;5.35;0.90;;;25.30;54.40;;;;;;5090744;28;20054;-58
2020/12/12 06:12:08;;;;;;;7.05;1.20;;;25.40;54.70;;;;;;5090892;28;20030;-56
2020/12/12 06:14:39;;;;;;;8.15;2.35;;;25.40;55.10;;;;;;5091034;28;20506;-54
2020/12/12 06:17:11;;;;;;;14.83;2.63;;;25.40;55.40;;;;;;5090559;28;20048;-53
2020/12/12 06:19:39;;;;;;;;;;;25.50;55.40;;;;;;5090982;28;20036;-56
2020/12/12 06:22:06;;;;;;;15.57;1.63;;;25.50;55.20;;;;;;5090723;28;20016;-59
2020/12/12 06:24:34;;;;;;;7.07;1.10;;;25.40;55.80;;;;;;5072457;28;20024;-59
2020/12/12 06:27:09;;;;;;;13.40;1.70;;;25.30;55.00;;;;;;5090353;28;20114;-62
2020/12/12 06:29:43;;;;;;;7.28;1.55;;;25.30;55.60;;;;;;5093306;28;20081;-56
2020/12/12 06:32:15;;;;;;;10.27;1.60;;;25.40;56.60;;;;;;5094392;28;20032;-63
2020/12/12 06:34:52;;;;;;;9.40;1.42;;;25.30;56.20;;;;;;5076300;28;20027;-56
2020/12/12 06:37:27;;;;;;;8.98;1.77;;;25.40;54.80;;;;;;5094545;28;20383;-61
2020/12/12 06:39:54;;;;;;;10.07;1.50;;;25.30;55.70;;;;;;5093929;28;20338;-55
2020/12/12 06:42:40;;;;;;;13.07;1.38;;;25.30;55.00;;;;;;5094479;28;20028;-58
2020/12/12 06:45:19;;;;;;;7.90;1.35;;;25.30;55.40;;;;;;5094038;28;20096;-59
2020/12/12 06:47:50;;;;;;;13.70;1.23;;;25.30;55.60;;;;;;5093984;28;20035;-56
2020/12/12 06:50:22;;;;;;;11.85;1.30;;;25.20;55.40;;;;;;5093901;28;20025;-56
2020/12/12 06:52:54;;;;;;;14.95;1.38;;;25.20;53.70;;;;;;5094053;28;20388;-58
2020/12/12 06:55:22;;;;;;;5.20;1.10;;;25.20;54.50;;;;;;5094073;28;20115;-60
2020/12/12 06:57:56;;;;;;;5.72;1.13;;;25.20;54.90;;;;;;5093696;28;20024;-56
2020/12/12 07:00:34;;;;;;;8.55;1.10;;;25.20;56.40;;;;;;5093742;28;20040;-59
2020/12/12 07:03:08;;;;;;;10.35;1.70;;;25.20;55.10;;;;;;5093930;28;20471;-60
2020/12/12 07:05:37;;;;;;;9.98;1.92;;;25.10;56.00;;;;;;5094047;28;20055;-59
2020/12/12 07:08:10;;;;;;;10.23;1.23;;;25.10;56.40;;;;;;5094124;28;20052;-59
2020/12/12 07:10:45;;;;;;;17.90;1.50;;;25.10;54.70;;;;;;5094164;28;20035;-59
2020/12/12 07:13:13;;;;;;;5.65;1.65;;;25.00;54.30;;;;;;5094165;28;20050;-61
2020/12/12 07:15:41;;;;;;;8.50;1.10;;;25.00;54.90;;;;;;5092252;28;20409;-61
2020/12/12 07:18:10;;;;;;;8.13;1.33;;;24.90;54.60;;;;;;5110971;27;20052;-54
2020/12/12 07:20:45;;;;;;;6.07;0.90;;;24.90;54.70;;;;;;5108208;27;20062;-64
2020/12/12 07:23:13;;;;;;;5.70;1.55;;;24.90;54.80;;;;;;5110258;28;20027;-60
2020/12/12 07:25:40;;;;;;;6.28;1.33;;;24.80;54.90;;;;;;5108903;28;20483;-60
2020/12/12 07:28:08;;;;;;;5.40;0.75;;;24.80;55.00;;;;;;5109388;28;20036;-54
2020/12/12 07:30:35;;;;;;;6.15;1.10;;;24.80;55.20;;;;;;5110525;28;20020;-64
2020/12/12 07:33:04;;;;;;;6.57;1.08;;;24.80;55.30;;;;;;5106519;28;20038;-51
2020/12/12 07:35:31;;;;;;;4.80;1.00;;;24.80;55.50;;;;;;5108094;27;20453;-55
2020/12/12 07:38:06;;;;;;;5.05;0.88;;;24.80;55.60;;;;;;5109402;27;20059;-60
2020/12/12 07:40:37;;;;;;;6.30;1.10;;;24.70;55.70;;;;;;5104094;28;20115;-60
2020/12/12 07:43:09;;;;;;;4.95;1.40;;;24.70;55.70;;;;;;5108682;28;20027;-59
2020/12/12 07:45:55;;;;;;;4.00;1.67;;;24.70;55.80;;;;;;5085307;28;20114;-60
2020/12/12 07:48:23;;;;;;;8.25;1.52;;;24.70;55.90;;;;;;5107773;28;20894;-57
2020/12/12 07:50:50;;;;;;;5.45;2.00;;;24.60;56.00;;;;;;5110369;28;20484;-61
2020/12/12 07:53:20;;;;;;;4.22;1.92;;;24.60;56.10;;;;;;5110098;28;20119;-56
2020/12/12 07:55:59;;;;;;;5.50;2.45;;;24.60;56.20;;;;;;5106930;28;20059;-58
2020/12/12 07:58:30;;;;;;;6.80;2.30;;;24.60;56.20;;;;;;5110067;28;20034;-63
2020/12/12 08:01:04;;;;;;;8.85;3.20;;;24.50;56.20;;;;;;5110581;28;20035;-61
2020/12/12 08:03:33;;;;;;;9.68;3.22;;;24.50;56.40;;;;;;5109586;28;20030;-63
2020/12/12 08:06:18;;;;;;;5.03;1.92;;;24.50;56.50;;;;;;5106880;28;20031;-62
2020/12/12 08:08:54;;;;;;;4.22;2.22;;;24.50;56.60;;;;;;5107571;28;20019;-62
2020/12/12 08:11:22;;;;;;;4.20;1.92;;;24.50;56.60;;;;;;5092091;28;20032;-57
2020/12/12 08:13:50;;;;;;;7.93;2.42;;;24.40;56.50;;;;;;5092372;28;20370;-59
2020/12/12 08:16:27;;;;;;;4.45;1.80;;;24.40;56.60;;;;;;5087287;28;20523;-59
2020/12/12 08:19:05;;;;;;;7.28;1.80;;;24.40;56.70;;;;;;5109392;28;20035;-61
2020/12/12 08:21:33;;;;;;;7.60;1.98;;;24.40;56.60;;;;;;5109435;28;20040;-62
2020/12/12 08:24:04;;;;;;;6.25;2.13;;;24.30;56.70;;;;;;5109659;28;20032;-64
2020/12/12 08:26:34;;;;;;;4.07;1.38;;;24.40;56.70;;;;;;5107135;28;20047;-60
2020/12/12 08:29:04;;;;;;;2.45;1.30;;;24.30;56.60;;;;;;5109261;28;20054;-55
2020/12/12 08:31:41;;;;;;;3.83;1.17;;;24.30;56.60;;;;;;5109229;28;20073;-53
2020/12/12 08:34:18;;;;;;;3.95;1.40;;;24.30;56.70;;;;;;5110086;28;20106;-61
2020/12/12 08:36:46;;;;;;;2.25;0.90;;;24.30;56.70;;;;;;5105009;28;20091;-60
2020/12/12 08:39:13;;;;;;;5.45;1.23;;;24.30;56.70;;;;;;5110056;28;20023;-62
2020/12/12 08:41:42;;;;;;;3.25;1.58;;;24.20;56.70;;;;;;5109449;28;20047;-62
2020/12/12 08:44:23;;;;;;;4.43;1.50;;;24.20;56.80;;;;;;5109459;28;20051;-60
2020/12/12 08:46:54;;;;;;;3.42;1.20;;;24.20;56.70;;;;;;5105029;28;20030;-59
2020/12/12 08:49:23;;;;;;;2.90;1.08;;;24.10;56.80;;;;;;5107856;28;20032;-57
2020/12/12 08:51:53;;;;;;;1.95;0.80;;;24.10;56.60;;;;;;5089688;28;20059;-58
2020/12/12 08:54:21;;;;;;;2.63;1.10;;;24.10;56.50;;;;;;5108084;28;20488;-55
2020/12/12 08:56:48;;;;;;;1.83;0.88;;;24.10;56.70;;;;;;5106105;28;20106;-59
2020/12/12 08:59:21;;;;;;;2.33;0.88;;;24.00;56.60;;;;;;5108381;28;20501;-56
2020/12/12 09:01:49;;;;;;;3.13;0.80;;;24.00;56.70;;;;;;5090503;28;20023;-56
2020/12/12 09:04:20;;;;;;;2.90;1.17;;;24.00;56.80;;;;;;5109288;28;20027;-54
2020/12/12 09:06:52;;;;;;;5.15;1.38;;;24.00;56.70;;;;;;5104809;28;20351;-56
2020/12/12 09:09:27;;;;;;;2.65;1.20;;;23.90;56.90;;;;;;5108925;28;20039;-59
2020/12/12 09:12:00;;;;;;;4.32;1.30;;;23.90;57.00;;;;;;5108862;28;20064;-59
2020/12/12 09:14:31;;;;;;;8.38;1.85;;;23.90;58.00;;;;;;5108768;28;20331;-59
2020/12/12 09:17:01;;;;;;;8.73;2.15;;;23.90;57.20;;;;;;5105322;28;20434;-54
2020/12/12 09:19:29;;;;;;;11.80;2.72;;;23.90;57.00;;;;;;5109204;28;20039;-56
2020/12/12 09:22:00;;;;;;;15.38;3.50;;;23.90;56.90;;;;;;5108278;28;20035;-62
2020/12/12 09:24:29;;;;;;;14.10;3.83;;;23.90;56.90;;;;;;5109280;28;20035;-60
2020/12/12 09:26:58;;;;;;;16.13;4.15;;;23.90;56.80;;;;;;5087512;28;20107;-58
2020/12/12 09:29:27;;;;;;;17.63;4.97;;;23.90;56.90;;;;;;5108588;28;20040;-60
2020/12/12 09:31:56;;;;;;;27.90;8.68;;;23.90;56.90;;;;;;5109677;28;20016;-57
2020/12/12 09:34:25;;;;;;;35.30;10.68;;;23.80;57.70;;;;;;5109870;28;20031;-59
2020/12/12 09:36:53;;;;;;;39.05;9.68;;;23.80;57.20;;;;;;5105440;28;20057;-57
2020/12/12 09:39:21;;;;;;;34.50;11.20;;;23.80;57.30;;;;;;5109610;28;20023;-59
2020/12/12 09:41:59;;;;;;;42.10;12.30;;;23.70;57.50;;;;;;5108421;28;20026;-61
2020/12/12 09:44:30;;;;;;;37.53;11.05;;;23.70;57.80;;;;;;5107240;28;20501;-61
2020/12/12 09:46:58;;;;;;;31.60;10.23;;;23.70;58.00;;;;;;5105767;28;20031;-59
2020/12/12 09:49:25;;;;;;;39.45;11.38;;;23.60;57.90;;;;;;5109015;28;20486;-61
2020/12/12 09:51:53;;;;;;;33.08;11.13;;;23.60;58.10;;;;;;5090644;28;20151;-59
2020/12/12 09:54:20;;;;;;;36.45;11.32;;;23.60;58.40;;;;;;5108709;28;20512;-61
2020/12/12 09:56:51;;;;;;;38.63;10.98;;;23.60;58.70;;;;;;5105713;28;20023;-62
2020/12/12 09:59:19;;;;;;;40.78;12.00;;;23.60;58.70;;;;;;5109215;28;20100;-63
2020/12/12 10:01:49;;;;;;;41.40;13.63;;;23.50;58.80;;;;;;5109197;28;20020;-61
2020/12/12 10:04:16;;;;;;;41.22;12.98;;;23.50;58.80;;;;;;5094458;28;20527;-59
2020/12/12 10:06:44;;;;;;;39.97;12.68;;;23.50;59.00;;;;;;5106742;28;20028;-56
2020/12/12 10:09:12;;;;;;;41.40;12.07;;;23.50;59.00;;;;;;5111817;28;20031;-59
2020/12/12 10:11:39;;;;;;;34.85;11.73;;;23.50;59.30;;;;;;5113369;27;20023;-56
2020/12/12 10:14:07;;;;;;;36.22;11.52;;;23.40;59.40;;;;;;5112593;28;20034;-61
2020/12/12 10:16:34;;;;;;;37.42;12.25;;;23.40;59.50;;;;;;5106598;28;20019;-56
2020/12/12 10:19:02;;;;;;;44.70;12.25;;;23.40;59.40;;;;;;5110689;28;20266;-55
2020/12/12 10:21:29;;;;;;;39.30;12.05;;;23.30;60.00;;;;;;5112314;28;20147;-54
2020/12/12 10:23:56;;;;;;;33.65;11.10;;;23.30;60.00;;;;;;5112294;28;20027;-62
2020/12/12 10:26:24;;;;;;;34.60;10.98;;;23.30;60.00;;;;;;5107796;28;20486;-61
2020/12/12 10:28:51;;;;;;;37.95;12.10;;;23.30;60.10;;;;;;5112012;28;20031;-60
2020/12/12 10:31:19;;;;;;;38.53;11.55;;;23.30;60.10;;;;;;5109790;28;20024;-60
2020/12/12 10:33:47;;;;;;;35.47;11.48;;;23.30;60.20;;;;;;5109808;28;20436;-64
2020/12/12 10:36:15;;;;;;;36.67;11.23;;;23.30;60.30;;;;;;5108712;28;20119;-62
2020/12/12 10:38:42;;;;;;;32.75;11.10;;;23.20;60.40;;;;;;5112299;28;20027;-63
2020/12/12 10:41:12;;;;;;;37.63;11.88;;;23.20;60.40;;;;;;5112209;28;20481;-61
2020/12/12 10:43:40;;;;;;;34.55;12.10;;;23.20;60.40;;;;;;5111163;28;20026;-59
2020/12/12 10:46:08;;;;;;;36.10;10.75;;;23.20;60.60;;;;;;5106822;28;20035;-62
2020/12/12 10:48:35;;;;;;;35.35;10.77;;;23.20;60.60;;;;;;5111316;28;20055;-49
2020/12/12 10:51:03;;;;;;;34.88;11.38;;;23.20;60.60;;;;;;5110693;28;20019;-54
2020/12/12 10:53:30;;;;;;;29.08;9.80;;;23.20;60.90;;;;;;5093122;28;20032;-57
2020/12/12 10:55:58;;;;;;;32.63;9.48;;;23.20;60.90;;;;;;5107241;28;20032;-56
2020/12/12 10:58:25;;;;;;;36.60;10.35;;;23.20;60.90;;;;;;5111286;28;20055;-59
2020/12/12 11:00:53;;;;;;;34.00;9.90;;;23.20;60.90;;;;;;5110267;28;20055;-60
2020/12/12 11:03:20;;;;;;;33.85;11.50;;;23.20;61.10;;;;;;5111819;28;20023;-63
2020/12/12 11:05:48;;;;;;;36.08;10.80;;;23.20;60.90;;;;;;5107637;28;20439;-53
2020/12/12 11:08:15;;;;;;;31.77;9.82;;;23.20;61.00;;;;;;5110826;28;20031;-60
2020/12/12 11:10:43;;;;;;;37.70;10.20;;;23.20;61.20;;;;;;5111623;28;20027;-65
2020/12/12 11:13:10;;;;;;;31.90;9.52;;;23.20;61.20;;;;;;5094117;28;20019;-63
2020/12/12 11:15:40;;;;;;;30.48;9.82;;;23.10;61.10;;;;;;5106909;28;20027;-58
2020/12/12 11:18:07;;;;;;;26.13;8.88;;;23.10;61.10;;;;;;5090591;28;20182;-56
2020/12/12 11:20:38;;;;;;;29.98;9.98;;;23.10;61.00;;;;;;5111243;28;20027;-55
2020/12/12 11:23:05;;;;;;;29.42;8.95;;;23.10;61.00;;;;;;5110804;28;20053;-54
2020/12/12 11:25:33;;;;;;;33.90;9.25;;;23.10;61.20;;;;;;5107513;28;20083;-58
2020/12/12 11:28:00;;;;;;;30.48;9.35;;;23.10;61.50;;;;;;5109986;28;20123;-62
2020/12/12 11:30:29;;;;;;;30.92;9.25;;;23.10;61.00;;;;;;5112328;28;20047;-60
2020/12/12 11:32:56;;;;;;;32.42;8.93;;;23.00;62.00;;;;;;5111991;28;20049;-61
2020/12/12 11:35:32;;;;;;;22.85;7.95;;;23.00;61.60;;;;;;5112682;28;20386;-59
2020/12/12 11:48:39;;;;;;;22.02;7.05;;;23.00;61.20;;;;;;5113956;28;20032;-62
2020/12/12 11:51:07;;;;;;;26.17;7.97;;;22.90;61.10;;;;;;5113755;28;20027;-61
2020/12/12 11:53:34;;;;;;;21.75;7.35;;;22.90;61.20;;;;;;5113942;28;20027;-62
2020/12/12 11:56:01;;;;;;;23.05;9.07;;;22.90;61.30;;;;;;5113599;28;20020;-60
2020/12/12 11:58:33;;;;;;;22.20;8.10;;;22.90;61.30;;;;;;5113316;28;20032;-61
2020/12/12 12:01:01;;;;;;;25.77;9.67;;;22.80;61.90;;;;;;5114252;28;20139;-56
2020/12/12 12:03:28;;;;;;;21.75;8.13;;;22.80;61.20;;;;;;5113565;28;20329;-61
2020/12/12 12:05:56;;;;;;;27.75;8.82;;;22.80;61.30;;;;;;5113908;28;20394;-61
2020/12/12 12:08:35;;;;;;;21.67;7.47;;;22.80;61.40;;;;;;5113519;28;20114;-60
2020/12/12 12:11:38;;;;;;;22.95;8.23;;;22.80;61.30;;;;;;5113613;28;20435;-59
2020/12/12 12:14:04;;;;;;;21.92;7.53;;;22.70;61.30;;;;;;5110324;28;20796;-59
2020/12/12 12:16:41;;;;;;;24.23;7.95;;;22.70;61.30;;;;;;5113698;28;20047;-61
2020/12/12 12:19:10;;;;;;;25.00;7.22;;;22.70;61.50;;;;;;5113495;28;20048;-62
2020/12/12 12:21:39;;;;;;;24.45;7.80;;;22.70;61.40;;;;;;5113090;28;20028;-59
2020/12/12 12:24:09;;;;;;;18.70;6.82;;;22.60;61.30;;;;;;5113095;28;20023;-62
2020/12/12 12:26:37;;;;;;;21.60;7.63;;;22.60;61.40;;;;;;5112675;28;20024;-60
2020/12/12 12:29:10;;;;;;;23.00;7.53;;;22.60;61.50;;;;;;5113704;28;20557;-62
2020/12/12 12:31:39;;;;;;;19.10;6.80;;;22.60;61.50;;;;;;5112991;28;20024;-62
2020/12/12 12:34:07;;;;;;;23.85;8.30;;;22.60;61.50;;;;;;5113188;28;20104;-60
2020/12/12 12:36:35;;;;;;;19.35;6.85;;;22.60;61.50;;;;;;5113125;28;20023;-60
2020/12/12 12:39:02;;;;;;;22.00;6.95;;;22.50;61.50;;;;;;5112978;28;20151;-62
2020/12/12 12:41:30;;;;;;;19.08;6.68;;;22.50;61.40;;;;;;5112657;28;20019;-63
2020/12/12 12:44:03;;;;;;;20.08;7.68;;;22.50;61.40;;;;;;5105235;27;20042;-61
2020/12/12 12:46:32;;;;;;;22.35;7.93;;;22.50;61.50;;;;;;5109889;27;20032;-61
2020/12/12 12:49:00;;;;;;;22.08;7.43;;;22.50;61.50;;;;;;5109583;28;20043;-61
2020/12/12 12:51:27;;;;;;;26.23;7.53;;;22.50;61.60;;;;;;5108256;27;20050;-61
2020/12/12 12:53:55;;;;;;;18.98;7.63;;;22.50;61.60;;;;;;5108354;28;20035;-61
2020/12/12 12:56:27;;;;;;;21.48;7.03;;;22.40;61.60;;;;;;5091108;28;20026;-61
2020/12/12 12:58:55;;;;;;;22.35;7.03;;;22.40;61.60;;;;;;5108828;28;20028;-62
2020/12/12 13:01:24;;;;;;;22.42;7.75;;;22.40;61.70;;;;;;5106002;28;20031;-61
2020/12/12 13:03:55;;;;;;;19.52;7.00;;;22.40;61.70;;;;;;5108808;27;20292;-60